createdAt,value
2024-01-03T00:01:22.585Z,2.67
2024-01-03T00:03:49.673Z,2.22
2024-01-03T00:06:16.783Z,2.17
2024-01-03T00:08:44.123Z,1.85
2024-01-03T00:11:19.062Z,2.85
2024-01-03T00:14:04.738Z,1.63
2024-01-03T00:16:31.601Z,1.73
2024-01-03T00:19:00.536Z,1.70
2024-01-03T00:21:29.568Z,1.55
2024-01-03T00:24:01.877Z,1.77
2024-01-03T00:26:30.455Z,1.63
2024-01-03T00:28:57.603Z,1.95
2024-01-03T00:34:25.342Z,1.40
2024-01-03T00:36:53.821Z,1.40
2024-01-03T00:39:26.724Z,1.90
2024-01-03T00:41:54.027Z,1.70
2024-01-03T00:44:20.693Z,1.90
2024-01-03T00:46:47.617Z,1.67
2024-01-03T00:49:16.411Z,1.35
2024-01-03T00:51:49.708Z,1.88
2024-01-03T00:54:17.687Z,2.10
2024-01-03T00:56:46.888Z,2.03
2024-01-03T00:59:14.831Z,1.33
2024-01-03T01:01:42.262Z,1.40
2024-01-03T01:04:09.345Z,1.52
2024-01-03T01:09:05.487Z,1.30
2024-01-03T01:11:32.372Z,1.77
2024-01-03T01:13:59.139Z,1.90
2024-01-03T01:16:26.177Z,1.50
2024-01-03T01:18:53.809Z,1.60
2024-01-03T01:21:20.562Z,1.48
2024-01-03T01:23:48.506Z,1.33
2024-01-03T01:26:15.395Z,1.50
2024-01-03T01:28:44.101Z,1.40
2024-01-03T01:31:10.779Z,1.33
2024-01-03T01:33:37.622Z,1.25
2024-01-03T01:36:05.141Z,1.30
2024-01-03T01:38:32.460Z,1.42
2024-01-03T01:40:59.181Z,1.05
2024-01-03T01:43:25.884Z,1.10
2024-01-03T01:45:52.826Z,1.30
2024-01-03T01:48:20.936Z,1.23
2024-01-03T01:50:47.652Z,1.42
2024-01-03T01:53:15.218Z,1.60
2024-01-03T01:55:42.899Z,3.50
2024-01-03T01:58:10.500Z,1.50
2024-01-03T02:00:40.060Z,1.10
2024-01-03T02:03:08.869Z,1.73
2024-01-03T02:05:39.068Z,1.15
2024-01-03T02:08:10.484Z,1.15
2024-01-03T02:10:37.865Z,1.10
2024-01-03T02:15:31.194Z,1.05
2024-01-03T02:17:58.359Z,1.23
2024-01-03T02:22:53.269Z,1.00
2024-01-03T02:25:19.900Z,1.55
2024-01-03T02:27:47.318Z,1.52
2024-01-03T02:30:14.079Z,2.28
2024-01-03T02:32:40.750Z,1.38
2024-01-03T02:35:07.927Z,1.20
2024-01-03T02:40:01.979Z,1.20
2024-01-03T02:42:28.577Z,1.55
2024-01-03T02:44:55.321Z,1.10
2024-01-03T02:47:22.137Z,1.33
2024-01-03T02:49:48.976Z,1.35
2024-01-03T02:52:15.754Z,2.00
2024-01-03T02:54:42.427Z,1.33
2024-01-03T02:57:09.100Z,1.40
2024-01-03T02:59:35.743Z,1.00
2024-01-03T03:02:02.301Z,1.08
2024-01-03T03:04:29.062Z,1.00
2024-01-03T03:06:55.596Z,0.80
2024-01-03T03:09:22.994Z,0.80
2024-01-03T03:11:49.839Z,1.33
2024-01-03T03:14:16.927Z,0.73
2024-01-03T03:19:10.687Z,0.60
2024-01-03T03:24:04.107Z,0.90
2024-01-03T03:26:30.804Z,0.90
2024-01-03T03:28:57.436Z,0.70
2024-01-03T03:31:24.057Z,0.90
2024-01-03T03:33:50.908Z,1.25
2024-01-03T03:36:17.850Z,0.77
2024-01-03T03:38:44.689Z,1.10
2024-01-03T03:41:12.636Z,0.90
2024-01-03T03:43:40.682Z,0.65
2024-01-03T03:46:08.366Z,1.10
2024-01-03T03:48:35.798Z,0.63
2024-01-03T03:51:03.164Z,0.35
2024-01-03T03:53:29.857Z,0.68
2024-01-03T03:55:56.543Z,1.00
2024-01-03T03:58:23.232Z,0.68
2024-01-03T04:00:50.017Z,0.65
2024-01-03T04:03:16.716Z,0.77
2024-01-03T04:05:43.714Z,0.73
2024-01-03T04:10:38.362Z,0.63
2024-01-03T04:13:05.494Z,0.90
2024-01-03T04:15:32.230Z,0.70
2024-01-03T04:17:59.204Z,1.15
2024-01-03T04:22:52.661Z,0.68
2024-01-03T04:25:19.310Z,0.55
2024-01-03T04:27:45.944Z,1.13
2024-01-03T04:30:13.006Z,0.70
2024-01-03T04:35:06.608Z,0.80
2024-01-03T04:37:34.461Z,0.85
2024-01-03T04:40:01.363Z,0.73
2024-01-03T04:42:28.154Z,0.43
2024-01-03T04:44:55.060Z,0.52
2024-01-03T04:47:21.947Z,0.82
2024-01-03T04:49:48.750Z,0.77
2024-01-03T04:52:15.457Z,0.50
2024-01-03T04:54:42.088Z,0.80
2024-01-03T04:57:09.114Z,0.40
2024-01-03T05:02:03.545Z,0.57
2024-01-03T05:04:30.141Z,0.45
2024-01-03T05:06:57.413Z,0.50
2024-01-03T05:09:24.726Z,0.63
2024-01-03T05:11:51.735Z,0.50
2024-01-03T05:16:45.128Z,0.60
2024-01-03T05:19:11.921Z,0.40
2024-01-03T05:21:38.686Z,0.57
2024-01-03T05:24:05.550Z,0.68
2024-01-03T05:26:32.736Z,0.40
2024-01-03T05:28:59.354Z,0.50
2024-01-03T05:31:26.011Z,0.50
2024-01-03T05:33:53.115Z,0.30
2024-01-03T05:36:19.830Z,0.50
2024-01-03T05:38:46.492Z,0.40
2024-01-03T05:41:13.319Z,0.60
2024-01-03T05:43:39.956Z,0.30
2024-01-03T05:46:07.230Z,0.30
2024-01-03T05:51:01.085Z,0.20
2024-01-03T05:53:27.865Z,0.30
2024-01-03T05:55:54.542Z,0.52
2024-01-03T05:58:21.152Z,0.40
2024-01-03T06:00:48.025Z,0.47
2024-01-03T06:03:14.830Z,0.38
2024-01-03T06:05:41.666Z,0.55
2024-01-03T06:08:09.398Z,0.43
2024-01-03T06:10:36.275Z,0.47
2024-01-03T06:13:03.032Z,0.65
2024-01-03T06:15:29.736Z,0.45
2024-01-03T06:17:56.471Z,0.43
2024-01-03T06:20:24.348Z,0.43
2024-01-03T06:22:51.350Z,0.40
2024-01-03T06:25:18.022Z,0.80
2024-01-03T06:27:45.016Z,0.50
2024-01-03T06:30:12.281Z,0.50
2024-01-03T06:32:39.182Z,0.28
2024-01-03T06:35:06.952Z,0.55
2024-01-03T06:37:33.666Z,0.82
2024-01-03T06:40:00.389Z,0.82
2024-01-03T06:42:27.043Z,1.02
2024-01-03T06:44:54.873Z,0.40
2024-01-03T06:47:21.801Z,0.43
2024-01-03T06:49:48.543Z,0.63
2024-01-03T06:52:15.170Z,0.50
2024-01-03T06:54:41.746Z,0.47
2024-01-03T06:57:08.418Z,0.43
2024-01-03T06:59:38.318Z,0.50
2024-01-03T07:02:05.247Z,0.57
2024-01-03T07:04:31.916Z,0.55
2024-01-03T07:06:58.571Z,0.30
2024-01-03T07:09:25.440Z,0.25
2024-01-03T07:11:52.137Z,0.30
2024-01-03T07:14:18.895Z,0.35
2024-01-03T07:16:47.655Z,0.22
2024-01-03T07:19:15.584Z,0.10
2024-01-03T07:21:42.329Z,0.40
2024-01-03T07:24:09.074Z,0.40
2024-01-03T07:26:36.427Z,0.20
2024-01-03T07:29:03.059Z,0.20
2024-01-03T07:31:29.642Z,0.20
2024-01-03T07:33:56.360Z,0.32
2024-01-03T07:36:23.072Z,0.20
2024-01-03T07:38:49.731Z,0.10
2024-01-03T07:41:22.378Z,0.35
2024-01-03T07:43:49.016Z,0.32
2024-01-03T07:46:16.844Z,0.30
2024-01-03T07:48:43.607Z,0.50
2024-01-03T07:51:11.976Z,0.30
2024-01-03T07:53:38.648Z,0.70
2024-01-03T07:56:09.460Z,0.57
2024-01-03T07:58:36.106Z,0.68
2024-01-03T08:01:02.835Z,0.88
2024-01-03T08:03:29.516Z,1.15
2024-01-03T08:05:56.524Z,1.27
2024-01-03T08:08:23.279Z,1.67
2024-01-03T08:10:49.963Z,2.45
2024-01-03T08:13:16.638Z,2.75
2024-01-03T08:15:43.377Z,2.20
2024-01-03T08:18:10.506Z,3.33
2024-01-03T08:20:37.676Z,2.22
2024-01-03T08:23:04.605Z,2.10
2024-01-03T08:25:31.420Z,2.33
2024-01-03T08:27:58.144Z,1.75
2024-01-03T08:30:24.979Z,1.65
2024-01-03T08:32:51.718Z,2.35
2024-01-03T08:35:18.409Z,1.95
2024-01-03T08:37:45.128Z,2.78
2024-01-03T08:40:12.082Z,2.08
2024-01-03T08:42:38.806Z,2.33
2024-01-03T08:45:05.713Z,2.03
2024-01-03T08:47:32.446Z,2.03
2024-01-03T08:49:59.351Z,2.67
2024-01-03T08:52:26.002Z,2.33
2024-01-03T08:54:52.583Z,2.15
2024-01-03T08:57:19.359Z,1.67
2024-01-03T08:59:46.027Z,2.95
2024-01-03T09:02:12.882Z,2.45
2024-01-03T09:04:39.470Z,3.38
2024-01-03T09:07:06.195Z,1.92
2024-01-03T09:09:32.891Z,2.17
2024-01-03T09:11:59.651Z,2.30
2024-01-03T09:14:26.444Z,2.20
2024-01-03T09:16:53.174Z,1.98
2024-01-03T09:19:19.970Z,1.85
2024-01-03T09:21:47.160Z,2.75
2024-01-03T09:26:41.095Z,2.25
2024-01-03T09:29:08.269Z,2.90
2024-01-03T09:34:08.429Z,1.83
2024-01-03T09:36:35.197Z,1.83
2024-01-03T09:39:01.863Z,2.10
2024-01-03T09:41:30.253Z,1.60
2024-01-03T09:43:58.042Z,2.20
2024-01-03T09:46:24.799Z,1.92
2024-01-03T09:48:51.861Z,1.67
2024-01-03T09:51:20.828Z,1.58
2024-01-03T09:53:52.115Z,2.60
2024-01-03T09:56:18.849Z,2.67
2024-01-03T09:58:47.409Z,1.80
2024-01-03T10:01:14.041Z,1.98
2024-01-03T10:03:40.702Z,1.55
2024-01-03T10:06:19.267Z,1.58
2024-01-03T10:09:03.003Z,1.42
2024-01-03T10:11:30.352Z,1.73
2024-01-03T10:13:58.053Z,1.33
2024-01-03T10:16:29.640Z,1.42
2024-01-03T10:19:12.215Z,1.20
2024-01-03T10:21:52.703Z,1.50
2024-01-03T10:24:21.038Z,1.45
2024-01-03T10:26:48.333Z,2.42
2024-01-03T10:29:20.218Z,1.67
2024-01-03T10:31:48.215Z,1.70
2024-01-03T10:34:22.288Z,1.75
2024-01-03T10:36:50.950Z,2.40
2024-01-03T10:39:19.816Z,1.75
2024-01-03T10:41:48.480Z,2.03
2024-01-03T10:44:16.886Z,1.70
2024-01-03T10:46:44.643Z,1.70
2024-01-03T10:49:11.730Z,1.90
2024-01-03T10:54:15.710Z,2.40
2024-01-03T10:56:49.952Z,1.92
2024-01-03T10:59:18.357Z,2.40
2024-01-03T11:01:51.716Z,3.60
2024-01-03T11:05:06.650Z,2.08
2024-01-03T11:07:43.958Z,2.03
2024-01-03T11:10:11.317Z,1.73
2024-01-03T11:12:37.928Z,1.33
2024-01-03T11:15:37.423Z,1.38
2024-01-03T11:18:09.806Z,1.33
2024-01-03T11:20:38.985Z,2.13
2024-01-03T11:23:06.796Z,1.27
2024-01-03T11:25:50.569Z,1.00
2024-01-03T11:28:33.946Z,1.10
2024-01-03T11:31:04.018Z,1.42
2024-01-03T11:33:33.349Z,1.20
2024-01-03T11:36:00.723Z,1.63
2024-01-03T11:38:40.534Z,1.27
2024-01-03T11:41:15.431Z,1.60
2024-01-03T11:43:41.997Z,1.30
2024-01-03T11:46:09.259Z,1.45
2024-01-03T11:48:40.597Z,1.33
2024-01-03T11:51:25.069Z,2.35
2024-01-03T11:53:53.019Z,1.13
2024-01-03T11:56:27.642Z,1.40
2024-01-03T11:58:58.953Z,1.13
2024-01-03T12:01:25.742Z,1.60
2024-01-03T12:04:08.213Z,1.00
2024-01-03T12:06:35.014Z,1.20
2024-01-03T12:09:03.776Z,0.90
2024-01-03T12:11:31.614Z,1.15
2024-01-03T12:13:58.328Z,1.60
2024-01-03T12:16:25.590Z,1.23
2024-01-03T12:18:54.823Z,1.23
2024-01-03T12:21:21.696Z,1.20
2024-01-03T12:24:03.106Z,1.67
2024-01-03T12:26:30.342Z,2.13
2024-01-03T12:31:30.113Z,1.80
2024-01-03T12:34:07.514Z,2.42
2024-01-03T12:36:34.420Z,3.33
2024-01-03T12:39:01.705Z,1.40
2024-01-03T12:41:28.541Z,2.13
2024-01-03T12:43:55.290Z,2.05
2024-01-03T12:46:22.008Z,1.30
2024-01-03T12:48:48.876Z,1.65
2024-01-03T12:51:15.618Z,1.45
2024-01-03T12:53:42.571Z,1.88
2024-01-03T12:56:09.330Z,1.27
2024-01-03T12:58:35.876Z,1.27
2024-01-03T13:01:02.906Z,1.20
2024-01-03T13:03:30.020Z,1.63
2024-01-03T13:05:56.859Z,1.27
2024-01-03T13:08:23.687Z,2.47
2024-01-03T13:10:50.369Z,2.45
2024-01-03T13:13:17.160Z,1.25
2024-01-03T13:15:47.361Z,1.27
2024-01-03T13:18:14.655Z,1.10
2024-01-03T13:20:41.887Z,1.27
2024-01-03T13:23:09.215Z,1.20
2024-01-03T13:25:36.052Z,0.98
2024-01-03T13:28:02.696Z,1.23
2024-01-03T13:30:30.232Z,1.23
2024-01-03T13:32:57.187Z,1.77
2024-01-03T13:37:51.047Z,2.28
2024-01-03T13:40:19.177Z,1.33
2024-01-03T13:42:46.075Z,1.30
2024-01-03T13:45:13.054Z,2.85
2024-01-03T13:47:39.786Z,1.65
2024-01-03T13:50:06.824Z,1.88
2024-01-03T13:52:34.560Z,1.38
2024-01-03T13:55:02.285Z,1.40
2024-01-03T13:57:29.008Z,1.48
2024-01-03T13:59:55.835Z,1.20
2024-01-03T14:02:22.593Z,1.08
2024-01-03T14:04:49.194Z,1.10
2024-01-03T14:07:15.881Z,1.27
2024-01-03T14:09:42.553Z,1.73
2024-01-03T14:12:09.352Z,0.80
2024-01-03T14:14:37.463Z,1.05
2024-01-03T14:17:05.556Z,1.05
2024-01-03T14:19:32.235Z,1.23
2024-01-03T14:22:01.077Z,1.38
2024-01-03T14:24:27.918Z,1.83
2024-01-03T14:26:55.015Z,1.00
2024-01-03T14:31:49.197Z,0.80
2024-01-03T14:34:16.314Z,1.00
2024-01-03T14:36:42.992Z,0.80
2024-01-03T14:39:09.952Z,0.65
2024-01-03T14:44:06.122Z,0.70
2024-01-03T14:46:35.961Z,0.90
2024-01-03T14:49:02.904Z,0.50
2024-01-03T14:51:29.789Z,1.02
2024-01-03T14:53:58.242Z,0.60
2024-01-03T14:56:27.358Z,0.70
2024-01-03T14:58:54.021Z,0.50
2024-01-03T15:01:20.662Z,0.50
2024-01-03T15:03:48.279Z,0.60
2024-01-03T15:06:19.508Z,0.50
2024-01-03T15:08:46.548Z,0.30
2024-01-03T15:11:13.167Z,1.10
2024-01-03T15:13:40.933Z,0.50
2024-01-03T15:16:08.404Z,1.70
2024-01-03T15:18:35.162Z,0.80
2024-01-03T15:21:03.812Z,0.95
2024-01-03T15:23:30.872Z,1.08
2024-01-03T15:25:59.381Z,1.08
2024-01-03T15:28:28.529Z,0.75
2024-01-03T15:30:55.324Z,0.57
2024-01-03T15:33:41.580Z,0.90
2024-01-03T15:36:08.542Z,0.50
2024-01-03T15:38:35.208Z,0.45
2024-01-03T15:41:03.591Z,1.13
2024-01-03T15:43:30.210Z,0.68
2024-01-03T15:45:56.828Z,0.63
2024-01-03T15:48:23.615Z,0.63
2024-01-03T15:50:50.313Z,0.70
2024-01-03T15:53:16.915Z,1.65
2024-01-03T15:55:43.550Z,1.23
2024-01-03T15:58:10.138Z,1.15
2024-01-03T16:00:38.431Z,0.88
2024-01-03T16:03:07.078Z,1.15
2024-01-03T16:05:34.079Z,1.00
2024-01-03T16:08:00.751Z,0.95
2024-01-03T16:10:29.850Z,0.90
2024-01-03T16:12:56.510Z,0.93
2024-01-03T16:15:23.172Z,1.13
2024-01-03T16:17:49.943Z,1.38
2024-01-03T16:20:16.745Z,1.00
2024-01-03T16:22:43.450Z,1.48
2024-01-03T16:25:12.359Z,1.38
2024-01-03T16:27:39.929Z,1.23
2024-01-03T16:32:34.032Z,2.13
2024-01-03T16:35:01.072Z,2.03
2024-01-03T16:39:57.128Z,2.67
2024-01-03T16:42:23.730Z,2.40
2024-01-03T16:44:50.446Z,2.40
2024-01-03T16:47:17.147Z,1.88
2024-01-03T16:49:45.829Z,2.58
2024-01-03T16:52:12.740Z,2.17
2024-01-03T16:54:39.405Z,1.88
2024-01-03T16:57:06.821Z,2.13
2024-01-03T16:59:35.581Z,2.35
2024-01-03T17:02:03.109Z,2.17
2024-01-03T17:04:29.844Z,2.85
2024-01-03T17:06:56.523Z,2.40
2024-01-03T17:09:23.794Z,2.40
2024-01-03T17:11:50.565Z,2.63
2024-01-03T17:14:17.470Z,1.92
2024-01-03T17:16:44.526Z,1.92
2024-01-03T17:21:38.496Z,3.50
2024-01-03T17:24:06.958Z,2.28
2024-01-03T17:26:36.878Z,2.42
2024-01-03T17:29:05.519Z,3.50
2024-01-03T17:31:35.806Z,2.75
2024-01-03T17:34:03.152Z,2.45
2024-01-03T17:36:30.239Z,2.88
2024-01-03T17:38:56.980Z,2.53
2024-01-03T17:41:26.866Z,2.30
2024-01-03T17:43:57.229Z,2.42
2024-01-03T17:46:24.186Z,2.67
2024-01-03T17:48:52.874Z,1.92
2024-01-03T17:51:22.270Z,2.30
2024-01-03T17:53:55.616Z,2.78
2024-01-03T17:56:29.369Z,2.10
2024-01-03T17:58:57.229Z,2.92
2024-01-03T18:01:24.407Z,2.58
2024-01-03T18:06:19.777Z,2.50
2024-01-03T18:08:46.786Z,3.08
2024-01-03T18:11:13.868Z,2.95
2024-01-03T18:16:07.245Z,2.70
2024-01-03T18:18:34.053Z,2.42
2024-01-03T18:21:01.035Z,4.72
2024-01-03T18:23:30.806Z,2.08
2024-01-03T18:25:57.660Z,2.47
2024-01-03T18:28:24.507Z,2.17
2024-01-03T18:30:51.354Z,1.25
2024-01-03T18:33:18.558Z,1.50
2024-01-03T18:35:45.402Z,1.95
2024-01-03T18:38:12.640Z,2.10
2024-01-03T18:40:39.822Z,2.78
2024-01-03T18:43:16.106Z,1.88
2024-01-03T18:45:47.098Z,2.38
2024-01-03T18:48:14.093Z,2.80
2024-01-03T18:50:41.043Z,3.60
2024-01-03T18:53:07.769Z,4.95
2024-01-03T18:55:34.545Z,4.22
2024-01-03T18:58:01.149Z,3.70
2024-01-03T19:00:29.691Z,2.25
2024-01-03T19:02:56.521Z,3.30
2024-01-03T19:05:24.597Z,2.15
2024-01-03T19:07:51.376Z,1.95
2024-01-03T19:10:18.832Z,2.53
2024-01-03T19:12:45.382Z,1.77
2024-01-03T19:15:13.676Z,2.13
2024-01-03T19:17:40.668Z,1.58
2024-01-03T19:20:08.084Z,1.60
2024-01-03T19:22:37.300Z,1.50
2024-01-03T19:25:04.791Z,1.40
2024-01-03T19:30:02.362Z,1.25
2024-01-03T19:32:29.797Z,0.90
2024-01-03T19:34:56.695Z,0.90
2024-01-03T19:37:23.477Z,1.27
2024-01-03T19:39:50.379Z,0.90
2024-01-03T19:42:17.868Z,0.90
2024-01-03T19:44:44.594Z,0.73
2024-01-03T19:47:12.254Z,0.60
2024-01-03T19:49:39.092Z,0.93
2024-01-03T19:52:06.023Z,1.10
2024-01-03T19:54:32.775Z,0.77
2024-01-03T19:56:59.785Z,0.73
2024-01-03T20:01:52.943Z,0.70
2024-01-03T20:04:21.149Z,0.68
2024-01-03T20:06:48.167Z,1.05
2024-01-03T20:11:49.504Z,1.00
2024-01-03T20:14:16.407Z,1.20
2024-01-03T20:16:43.269Z,1.35
2024-01-03T20:19:10.735Z,1.77
2024-01-03T20:21:42.214Z,1.27
2024-01-03T20:24:09.323Z,1.02
2024-01-03T20:29:05.764Z,1.20
2024-01-03T20:31:32.377Z,1.35
2024-01-03T20:33:59.690Z,1.65
2024-01-03T20:36:26.521Z,1.10
2024-01-03T20:38:57.241Z,1.38
2024-01-03T20:41:23.995Z,1.23
2024-01-03T20:43:50.751Z,1.15
2024-01-03T20:46:17.490Z,1.00
2024-01-03T20:48:44.258Z,1.10
2024-01-03T20:51:18.109Z,1.13
2024-01-03T20:53:45.317Z,1.00
2024-01-03T20:58:41.874Z,0.77
2024-01-03T21:01:09.378Z,1.00
2024-01-03T21:03:40.477Z,0.75
2024-01-03T21:06:08.145Z,1.02
2024-01-03T21:08:38.540Z,0.80
2024-01-03T21:11:07.904Z,1.00
2024-01-03T21:13:35.725Z,0.88
2024-01-03T21:16:02.670Z,0.80
2024-01-03T21:18:29.748Z,1.80
2024-01-03T21:20:56.656Z,1.00
2024-01-03T21:23:23.372Z,1.00
2024-01-03T21:25:50.220Z,1.10
2024-01-03T21:28:16.911Z,0.88
2024-01-03T21:30:43.868Z,1.15
2024-01-03T21:33:10.713Z,1.20
2024-01-03T21:35:37.560Z,1.20
2024-01-03T21:38:04.421Z,1.25
2024-01-03T21:40:31.086Z,1.25
2024-01-03T21:42:57.675Z,1.05
2024-01-03T21:45:24.424Z,0.80
2024-01-03T21:47:51.174Z,0.90
2024-01-03T21:50:18.020Z,1.05
2024-01-03T21:52:47.595Z,0.93
2024-01-03T21:55:14.454Z,1.27
2024-01-03T21:57:41.133Z,1.02
2024-01-03T22:00:08.848Z,0.90
2024-01-03T22:02:39.308Z,1.00
2024-01-03T22:07:34.978Z,1.17
2024-01-03T22:10:01.634Z,0.90
2024-01-03T22:12:28.277Z,0.90
2024-01-03T22:14:55.091Z,1.20
2024-01-03T22:17:21.681Z,0.93
2024-01-03T22:19:48.417Z,0.95
2024-01-03T22:22:15.052Z,1.08
2024-01-03T22:24:41.690Z,1.70
2024-01-03T22:27:08.537Z,1.15
2024-01-03T22:29:35.327Z,0.90
2024-01-03T22:32:01.954Z,1.17
2024-01-03T22:34:30.322Z,1.10
2024-01-03T22:36:57.388Z,1.52
2024-01-03T22:39:24.015Z,1.17
2024-01-03T22:41:50.684Z,0.82
2024-01-03T22:44:17.344Z,1.33
2024-01-03T22:46:47.818Z,1.10
2024-01-03T22:49:16.580Z,1.55
2024-01-03T22:51:43.838Z,1.58
2024-01-03T22:56:38.804Z,1.73
2024-01-03T22:59:06.230Z,1.27
2024-01-03T23:01:35.920Z,2.20
2024-01-03T23:04:03.552Z,1.27
2024-01-03T23:06:30.632Z,1.75
2024-01-03T23:08:57.290Z,1.70
2024-01-03T23:11:23.910Z,1.70
2024-01-03T23:13:50.464Z,2.03
2024-01-03T23:16:19.787Z,1.48
2024-01-03T23:18:46.665Z,1.30
2024-01-03T23:21:20.847Z,1.30
2024-01-03T23:23:47.952Z,1.25
2024-01-03T23:28:43.869Z,1.08
2024-01-03T23:31:10.903Z,1.30
2024-01-03T23:33:37.679Z,1.30
2024-01-03T23:36:04.848Z,1.70
2024-01-03T23:40:58.255Z,1.17
2024-01-03T23:43:25.043Z,1.00
2024-01-03T23:45:51.646Z,1.10
2024-01-03T23:48:18.436Z,0.73
2024-01-03T23:50:45.167Z,1.05
2024-01-03T23:53:12.018Z,0.90
2024-01-03T23:55:38.618Z,0.98
2024-01-03T23:58:07.060Z,0.80
